sensor_id;sensor_type;location;lat;lon;timestamp;P1;durP1;ratioP1;P2;durP2;ratioP2
72194;SDS011;60095;50.180;9.032;2023-02-04T00:02:00;9.43;;;4.00;;
72194;SDS011;60095;50.180;9.032;2023-02-04T00:04:26;6.80;;;3.53;;
72194;SDS011;60095;50.180;9.032;2023-02-04T00:06:53;12.10;;;3.88;;
72194;SDS011;60095;50.180;9.032;2023-02-04T00:09:19;6.32;;;4.05;;
72194;SDS011;60095;50.180;9.032;2023-02-04T00:11:45;6.93;;;4.35;;
72194;SDS011;60095;50.180;9.032;2023-02-04T00:14:13;3.15;;;1.92;;
72194;SDS011;60095;50.180;9.032;2023-02-04T00:16:39;5.55;;;4.00;;
72194;SDS011;60095;50.180;9.032;2023-02-04T00:19:06;5.55;;;2.58;;
72194;SDS011;60095;50.180;9.032;2023-02-04T00:21:32;6.20;;;2.75;;
72194;SDS011;60095;50.180;9.032;2023-02-04T00:23:58;4.47;;;2.53;;
72194;SDS011;60095;50.180;9.032;2023-02-04T00:26:25;8.02;;;2.17;;
72194;SDS011;60095;50.180;9.032;2023-02-04T00:28:51;12.73;;;3.40;;
72194;SDS011;60095;50.180;9.032;2023-02-04T00:31:18;12.23;;;3.38;;
72194;SDS011;60095;50.180;9.032;2023-02-04T00:33:45;4.68;;;3.03;;
72194;SDS011;60095;50.180;9.032;2023-02-04T00:36:11;4.05;;;3.65;;
72194;SDS011;60095;50.180;9.032;2023-02-04T00:38:37;5.35;;;1.90;;
72194;SDS011;60095;50.180;9.032;2023-02-04T00:41:04;8.25;;;4.22;;
72194;SDS011;60095;50.180;9.032;2023-02-04T00:43:31;9.15;;;4.28;;
72194;SDS011;60095;50.180;9.032;2023-02-04T00:45:57;4.95;;;1.52;;
72194;SDS011;60095;50.180;9.032;2023-02-04T00:48:24;3.50;;;2.30;;
72194;SDS011;60095;50.180;9.032;2023-02-04T00:50:51;4.68;;;1.88;;
72194;SDS011;60095;50.180;9.032;2023-02-04T00:53:18;9.20;;;2.85;;
72194;SDS011;60095;50.180;9.032;2023-02-04T00:55:44;6.65;;;2.53;;
72194;SDS011;60095;50.180;9.032;2023-02-04T00:58:10;2.08;;;1.33;;
72194;SDS011;60095;50.180;9.032;2023-02-04T01:00:37;3.85;;;2.33;;
72194;SDS011;60095;50.180;9.032;2023-02-04T01:03:03;4.03;;;2.22;;
72194;SDS011;60095;50.180;9.032;2023-02-04T01:05:30;10.75;;;2.38;;
72194;SDS011;60095;50.180;9.032;2023-02-04T01:07:57;5.28;;;3.92;;
72194;SDS011;60095;50.180;9.032;2023-02-04T01:10:23;7.72;;;3.10;;
72194;SDS011;60095;50.180;9.032;2023-02-04T01:12:50;2.67;;;2.47;;
72194;SDS011;60095;50.180;9.032;2023-02-04T01:15:16;5.15;;;2.03;;
72194;SDS011;60095;50.180;9.032;2023-02-04T01:17:43;5.93;;;2.03;;
72194;SDS011;60095;50.180;9.032;2023-02-04T01:20:09;6.47;;;1.73;;
72194;SDS011;60095;50.180;9.032;2023-02-04T01:22:37;3.75;;;2.10;;
72194;SDS011;60095;50.180;9.032;2023-02-04T01:25:04;4.13;;;2.10;;
72194;SDS011;60095;50.180;9.032;2023-02-04T01:27:30;5.35;;;3.92;;
72194;SDS011;60095;50.180;9.032;2023-02-04T01:29:57;2.85;;;1.73;;
72194;SDS011;60095;50.180;9.032;2023-02-04T01:32:23;6.78;;;4.63;;
72194;SDS011;60095;50.180;9.032;2023-02-04T01:34:49;7.10;;;2.17;;
72194;SDS011;60095;50.180;9.032;2023-02-04T01:37:15;5.13;;;3.08;;
72194;SDS011;60095;50.180;9.032;2023-02-04T01:39:43;3.58;;;2.03;;
72194;SDS011;60095;50.180;9.032;2023-02-04T01:42:09;6.93;;;3.10;;
72194;SDS011;60095;50.180;9.032;2023-02-04T01:44:36;5.55;;;2.63;;
72194;SDS011;60095;50.180;9.032;2023-02-04T01:47:03;14.85;;;3.38;;
72194;SDS011;60095;50.180;9.032;2023-02-04T01:49:29;4.00;;;2.17;;
72194;SDS011;60095;50.180;9.032;2023-02-04T01:51:56;9.52;;;2.90;;
72194;SDS011;60095;50.180;9.032;2023-02-04T01:54:22;20.98;;;3.45;;
72194;SDS011;60095;50.180;9.032;2023-02-04T01:56:51;5.68;;;2.55;;
72194;SDS011;60095;50.180;9.032;2023-02-04T01:59:19;6.60;;;3.03;;
72194;SDS011;60095;50.180;9.032;2023-02-04T02:01:46;8.85;;;3.25;;
72194;SDS011;60095;50.180;9.032;2023-02-04T02:04:14;10.15;;;2.72;;
72194;SDS011;60095;50.180;9.032;2023-02-04T02:06:41;3.08;;;1.52;;
72194;SDS011;60095;50.180;9.032;2023-02-04T02:09:09;13.93;;;2.78;;
72194;SDS011;60095;50.180;9.032;2023-02-04T02:11:35;9.63;;;3.38;;
72194;SDS011;60095;50.180;9.032;2023-02-04T02:14:03;2.30;;;1.55;;
72194;SDS011;60095;50.180;9.032;2023-02-04T02:16:29;8.43;;;2.47;;
72194;SDS011;60095;50.180;9.032;2023-02-04T02:18:57;10.93;;;3.58;;
72194;SDS011;60095;50.180;9.032;2023-02-04T02:21:26;6.25;;;2.38;;
72194;SDS011;60095;50.180;9.032;2023-02-04T02:23:56;5.68;;;3.70;;
72194;SDS011;60095;50.180;9.032;2023-02-04T02:26:25;21.85;;;2.95;;
72194;SDS011;60095;50.180;9.032;2023-02-04T02:28:51;6.72;;;3.05;;
72194;SDS011;60095;50.180;9.032;2023-02-04T02:31:18;5.55;;;2.35;;
72194;SDS011;60095;50.180;9.032;2023-02-04T02:33:45;9.60;;;3.75;;
72194;SDS011;60095;50.180;9.032;2023-02-04T02:36:12;6.78;;;1.63;;
72194;SDS011;60095;50.180;9.032;2023-02-04T02:38:38;8.48;;;4.70;;
72194;SDS011;60095;50.180;9.032;2023-02-04T02:41:06;11.48;;;3.35;;
72194;SDS011;60095;50.180;9.032;2023-02-04T02:43:34;10.65;;;2.17;;
72194;SDS011;60095;50.180;9.032;2023-02-04T02:46:01;8.27;;;4.00;;
72194;SDS011;60095;50.180;9.032;2023-02-04T02:48:27;16.50;;;3.10;;
72194;SDS011;60095;50.180;9.032;2023-02-04T02:50:54;12.73;;;2.83;;
72194;SDS011;60095;50.180;9.032;2023-02-04T02:53:20;3.83;;;2.28;;
72194;SDS011;60095;50.180;9.032;2023-02-04T02:55:47;8.80;;;3.75;;
72194;SDS011;60095;50.180;9.032;2023-02-04T02:58:15;12.02;;;2.95;;
72194;SDS011;60095;50.180;9.032;2023-02-04T03:00:43;5.10;;;2.15;;
72194;SDS011;60095;50.180;9.032;2023-02-04T03:03:10;10.63;;;3.15;;
72194;SDS011;60095;50.180;9.032;2023-02-04T03:05:38;5.38;;;3.38;;
72194;SDS011;60095;50.180;9.032;2023-02-04T03:08:05;6.13;;;2.17;;
72194;SDS011;60095;50.180;9.032;2023-02-04T03:10:33;3.78;;;1.63;;
72194;SDS011;60095;50.180;9.032;2023-02-04T03:12:59;4.18;;;1.33;;
72194;SDS011;60095;50.180;9.032;2023-02-04T03:15:27;2.80;;;1.70;;
72194;SDS011;60095;50.180;9.032;2023-02-04T03:17:53;1.75;;;1.58;;
72194;SDS011;60095;50.180;9.032;2023-02-04T03:20:20;5.88;;;1.80;;
72194;SDS011;60095;50.180;9.032;2023-02-04T03:22:47;12.23;;;3.50;;
72194;SDS011;60095;50.180;9.032;2023-02-04T03:25:14;5.15;;;2.60;;
72194;SDS011;60095;50.180;9.032;2023-02-04T03:27:40;4.15;;;2.25;;
72194;SDS011;60095;50.180;9.032;2023-02-04T03:30:07;4.60;;;1.92;;
72194;SDS011;60095;50.180;9.032;2023-02-04T03:32:35;5.47;;;3.17;;
72194;SDS011;60095;50.180;9.032;2023-02-04T03:35:01;7.72;;;2.65;;
72194;SDS011;60095;50.180;9.032;2023-02-04T03:37:28;14.13;;;3.85;;
72194;SDS011;60095;50.180;9.032;2023-02-04T03:39:54;5.88;;;2.33;;
72194;SDS011;60095;50.180;9.032;2023-02-04T03:42:20;7.80;;;3.95;;
72194;SDS011;60095;50.180;9.032;2023-02-04T03:44:46;9.63;;;3.85;;
72194;SDS011;60095;50.180;9.032;2023-02-04T03:47:13;2.72;;;2.47;;
72194;SDS011;60095;50.180;9.032;2023-02-04T03:49:40;9.02;;;3.60;;
72194;SDS011;60095;50.180;9.032;2023-02-04T03:52:07;16.67;;;3.92;;
72194;SDS011;60095;50.180;9.032;2023-02-04T03:54:33;1.77;;;1.42;;
72194;SDS011;60095;50.180;9.032;2023-02-04T03:56:59;4.15;;;2.85;;
72194;SDS011;60095;50.180;9.032;2023-02-04T03:59:25;4.68;;;2.45;;
72194;SDS011;60095;50.180;9.032;2023-02-04T04:01:52;5.88;;;3.70;;
72194;SDS011;60095;50.180;9.032;2023-02-04T04:04:18;7.50;;;3.53;;
72194;SDS011;60095;50.180;9.032;2023-02-04T04:06:46;9.23;;;3.63;;
72194;SDS011;60095;50.180;9.032;2023-02-04T04:09:12;19.65;;;2.72;;
72194;SDS011;60095;50.180;9.032;2023-02-04T04:11:38;11.75;;;3.25;;
72194;SDS011;60095;50.180;9.032;2023-02-04T04:14:04;11.40;;;4.50;;
72194;SDS011;60095;50.180;9.032;2023-02-04T04:16:31;3.03;;;2.38;;
72194;SDS011;60095;50.180;9.032;2023-02-04T04:18:57;9.57;;;2.53;;
72194;SDS011;60095;50.180;9.032;2023-02-04T04:21:23;5.90;;;2.53;;
72194;SDS011;60095;50.180;9.032;2023-02-04T04:23:51;14.20;;;2.90;;
72194;SDS011;60095;50.180;9.032;2023-02-04T04:26:17;23.58;;;3.33;;
72194;SDS011;60095;50.180;9.032;2023-02-04T04:28:44;3.05;;;2.35;;
72194;SDS011;60095;50.180;9.032;2023-02-04T04:31:10;8.70;;;2.95;;
72194;SDS011;60095;50.180;9.032;2023-02-04T04:33:37;16.75;;;3.38;;
72194;SDS011;60095;50.180;9.032;2023-02-04T04:36:03;14.88;;;3.20;;
72194;SDS011;60095;50.180;9.032;2023-02-04T04:38:30;1.85;;;1.75;;
72194;SDS011;60095;50.180;9.032;2023-02-04T04:40:57;14.77;;;3.35;;
72194;SDS011;60095;50.180;9.032;2023-02-04T04:43:24;17.05;;;3.13;;
72194;SDS011;60095;50.180;9.032;2023-02-04T04:45:50;13.05;;;3.78;;
72194;SDS011;60095;50.180;9.032;2023-02-04T04:48:16;13.27;;;3.92;;
72194;SDS011;60095;50.180;9.032;2023-02-04T04:50:43;8.20;;;3.88;;
72194;SDS011;60095;50.180;9.032;2023-02-04T04:53:09;9.68;;;3.00;;
72194;SDS011;60095;50.180;9.032;2023-02-04T04:55:36;9.30;;;2.17;;
72194;SDS011;60095;50.180;9.032;2023-02-04T04:58:03;9.00;;;3.78;;
72194;SDS011;60095;50.180;9.032;2023-02-04T05:00:30;3.45;;;2.08;;
72194;SDS011;60095;50.180;9.032;2023-02-04T05:02:56;8.57;;;2.65;;
72194;SDS011;60095;50.180;9.032;2023-02-04T05:05:22;2.28;;;2.08;;
72194;SDS011;60095;50.180;9.032;2023-02-04T05:07:49;11.07;;;4.07;;
72194;SDS011;60095;50.180;9.032;2023-02-04T05:10:15;17.42;;;4.18;;
72194;SDS011;60095;50.180;9.032;2023-02-04T05:12:41;11.60;;;2.97;;
72194;SDS011;60095;50.180;9.032;2023-02-04T05:15:09;5.50;;;2.58;;
72194;SDS011;60095;50.180;9.032;2023-02-04T05:17:36;6.63;;;2.40;;
72194;SDS011;60095;50.180;9.032;2023-02-04T05:20:02;7.47;;;3.28;;
72194;SDS011;60095;50.180;9.032;2023-02-04T05:22:28;8.50;;;2.88;;
72194;SDS011;60095;50.180;9.032;2023-02-04T05:24:55;4.90;;;1.30;;
72194;SDS011;60095;50.180;9.032;2023-02-04T05:27:21;4.18;;;2.10;;
72194;SDS011;60095;50.180;9.032;2023-02-04T05:29:47;3.17;;;2.20;;
72194;SDS011;60095;50.180;9.032;2023-02-04T05:32:15;18.63;;;3.97;;
72194;SDS011;60095;50.180;9.032;2023-02-04T05:34:41;9.57;;;3.42;;
72194;SDS011;60095;50.180;9.032;2023-02-04T05:37:08;5.53;;;2.85;;
72194;SDS011;60095;50.180;9.032;2023-02-04T05:39:34;5.43;;;3.85;;
72194;SDS011;60095;50.180;9.032;2023-02-04T05:42:00;8.60;;;2.67;;
72194;SDS011;60095;50.180;9.032;2023-02-04T05:44:27;9.63;;;2.90;;
72194;SDS011;60095;50.180;9.032;2023-02-04T05:46:53;15.57;;;3.55;;
72194;SDS011;60095;50.180;9.032;2023-02-04T05:49:21;2.15;;;1.80;;
72194;SDS011;60095;50.180;9.032;2023-02-04T05:51:47;7.40;;;2.65;;
72194;SDS011;60095;50.180;9.032;2023-02-04T05:54:14;4.15;;;2.28;;
72194;SDS011;60095;50.180;9.032;2023-02-04T05:56:43;5.30;;;3.03;;
72194;SDS011;60095;50.180;9.032;2023-02-04T05:59:09;6.22;;;3.00;;
72194;SDS011;60095;50.180;9.032;2023-02-04T06:01:36;8.15;;;2.40;;
72194;SDS011;60095;50.180;9.032;2023-02-04T06:04:02;3.30;;;2.35;;
72194;SDS011;60095;50.180;9.032;2023-02-04T06:06:30;12.27;;;3.28;;
72194;SDS011;60095;50.180;9.032;2023-02-04T06:08:56;3.55;;;3.22;;
72194;SDS011;60095;50.180;9.032;2023-02-04T06:11:22;5.05;;;2.67;;
72194;SDS011;60095;50.180;9.032;2023-02-04T06:13:49;15.82;;;3.05;;
72194;SDS011;60095;50.180;9.032;2023-02-04T06:16:15;3.90;;;3.58;;
72194;SDS011;60095;50.180;9.032;2023-02-04T06:18:41;5.35;;;3.05;;
72194;SDS011;60095;50.180;9.032;2023-02-04T06:21:07;12.38;;;4.05;;
72194;SDS011;60095;50.180;9.032;2023-02-04T06:23:35;5.88;;;2.85;;
72194;SDS011;60095;50.180;9.032;2023-02-04T06:26:01;19.25;;;5.13;;
72194;SDS011;60095;50.180;9.032;2023-02-04T06:28:28;9.15;;;3.53;;
72194;SDS011;60095;50.180;9.032;2023-02-04T06:30:54;8.40;;;3.55;;
72194;SDS011;60095;50.180;9.032;2023-02-04T06:33:20;10.57;;;4.25;;
72194;SDS011;60095;50.180;9.032;2023-02-04T06:35:48;3.30;;;2.03;;
72194;SDS011;60095;50.180;9.032;2023-02-04T06:38:14;6.03;;;3.42;;
72194;SDS011;60095;50.180;9.032;2023-02-04T06:40:42;24.10;;;5.85;;
72194;SDS011;60095;50.180;9.032;2023-02-04T06:43:08;7.03;;;2.00;;
72194;SDS011;60095;50.180;9.032;2023-02-04T06:45:34;3.88;;;2.80;;
72194;SDS011;60095;50.180;9.032;2023-02-04T06:48:01;4.95;;;2.72;;
72194;SDS011;60095;50.180;9.032;2023-02-04T06:50:27;19.33;;;5.05;;
72194;SDS011;60095;50.180;9.032;2023-02-04T06:52:53;9.57;;;3.28;;
72194;SDS011;60095;50.180;9.032;2023-02-04T06:55:19;26.05;;;5.03;;
72194;SDS011;60095;50.180;9.032;2023-02-04T06:57:47;11.90;;;4.35;;
72194;SDS011;60095;50.180;9.032;2023-02-04T07:00:13;10.73;;;3.13;;
72194;SDS011;60095;50.180;9.032;2023-02-04T07:02:40;20.00;;;5.45;;
72194;SDS011;60095;50.180;9.032;2023-02-04T07:05:06;11.20;;;3.95;;
72194;SDS011;60095;50.180;9.032;2023-02-04T07:07:33;10.55;;;1.88;;
72194;SDS011;60095;50.180;9.032;2023-02-04T07:09:59;5.65;;;2.95;;
72194;SDS011;60095;50.180;9.032;2023-02-04T07:12:26;7.32;;;3.13;;
72194;SDS011;60095;50.180;9.032;2023-02-04T07:14:54;16.90;;;4.60;;
72194;SDS011;60095;50.180;9.032;2023-02-04T07:17:20;7.75;;;3.17;;
72194;SDS011;60095;50.180;9.032;2023-02-04T07:19:47;10.80;;;4.10;;
72194;SDS011;60095;50.180;9.032;2023-02-04T07:22:13;6.80;;;3.83;;
72194;SDS011;60095;50.180;9.032;2023-02-04T07:24:39;11.05;;;5.50;;
72194;SDS011;60095;50.180;9.032;2023-02-04T07:27:05;11.95;;;5.60;;
72194;SDS011;60095;50.180;9.032;2023-02-04T07:29:32;19.65;;;3.53;;
72194;SDS011;60095;50.180;9.032;2023-02-04T07:32:00;16.88;;;5.25;;
72194;SDS011;60095;50.180;9.032;2023-02-04T07:34:26;9.70;;;3.65;;
72194;SDS011;60095;50.180;9.032;2023-02-04T07:36:52;23.58;;;5.43;;
72194;SDS011;60095;50.180;9.032;2023-02-04T07:39:19;13.25;;;9.27;;
72194;SDS011;60095;50.180;9.032;2023-02-04T07:41:45;12.70;;;5.43;;
72194;SDS011;60095;50.180;9.032;2023-02-04T07:44:11;11.82;;;7.50;;
72194;SDS011;60095;50.180;9.032;2023-02-04T07:46:37;18.08;;;5.30;;
72194;SDS011;60095;50.180;9.032;2023-02-04T07:49:05;20.10;;;6.40;;
72194;SDS011;60095;50.180;9.032;2023-02-04T07:51:32;13.85;;;5.75;;
72194;SDS011;60095;50.180;9.032;2023-02-04T07:53:59;15.40;;;4.85;;
72194;SDS011;60095;50.180;9.032;2023-02-04T07:56:25;13.73;;;9.00;;
72194;SDS011;60095;50.180;9.032;2023-02-04T07:58:51;35.35;;;16.48;;
72194;SDS011;60095;50.180;9.032;2023-02-04T08:01:18;21.05;;;11.40;;
72194;SDS011;60095;50.180;9.032;2023-02-04T08:03:44;30.30;;;11.02;;
72194;SDS011;60095;50.180;9.032;2023-02-04T08:06:11;31.48;;;9.00;;
72194;SDS011;60095;50.180;9.032;2023-02-04T08:08:38;14.15;;;8.88;;
72194;SDS011;60095;50.180;9.032;2023-02-04T08:11:04;15.02;;;6.55;;
72194;SDS011;60095;50.180;9.032;2023-02-04T08:13:30;10.75;;;6.72;;
72194;SDS011;60095;50.180;9.032;2023-02-04T08:15:57;5.13;;;3.03;;
72194;SDS011;60095;50.180;9.032;2023-02-04T08:18:23;9.95;;;5.97;;
72194;SDS011;60095;50.180;9.032;2023-02-04T08:20:50;8.05;;;7.25;;
72194;SDS011;60095;50.180;9.032;2023-02-04T08:23:17;24.30;;;6.70;;
72194;SDS011;60095;50.180;9.032;2023-02-04T08:25:44;17.17;;;5.75;;
72194;SDS011;60095;50.180;9.032;2023-02-04T08:28:10;11.48;;;7.35;;
72194;SDS011;60095;50.180;9.032;2023-02-04T08:30:36;10.63;;;5.07;;
72194;SDS011;60095;50.180;9.032;2023-02-04T08:33:03;5.70;;;4.30;;
72194;SDS011;60095;50.180;9.032;2023-02-04T08:35:29;18.65;;;6.80;;
72194;SDS011;60095;50.180;9.032;2023-02-04T08:37:55;12.50;;;3.63;;
72194;SDS011;60095;50.180;9.032;2023-02-04T08:40:23;17.77;;;4.68;;
72194;SDS011;60095;50.180;9.032;2023-02-04T08:42:49;14.90;;;5.47;;
72194;SDS011;60095;50.180;9.032;2023-02-04T08:45:16;7.05;;;3.47;;
72194;SDS011;60095;50.180;9.032;2023-02-04T08:47:42;9.95;;;5.53;;
72194;SDS011;60095;50.180;9.032;2023-02-04T08:50:09;10.32;;;4.90;;
72194;SDS011;60095;50.180;9.032;2023-02-04T08:52:35;11.30;;;4.13;;
72194;SDS011;60095;50.180;9.032;2023-02-04T08:55:02;11.88;;;4.78;;
72194;SDS011;60095;50.180;9.032;2023-02-04T08:57:30;15.75;;;3.35;;
72194;SDS011;60095;50.180;9.032;2023-02-04T08:59:58;17.90;;;4.30;;
72194;SDS011;60095;50.180;9.032;2023-02-04T09:02:24;14.63;;;5.07;;
72194;SDS011;60095;50.180;9.032;2023-02-04T09:04:50;23.73;;;7.00;;
72194;SDS011;60095;50.180;9.032;2023-02-04T09:07:17;21.38;;;6.43;;
72194;SDS011;60095;50.180;9.032;2023-02-04T09:09:43;5.50;;;3.72;;
72194;SDS011;60095;50.180;9.032;2023-02-04T09:12:09;20.33;;;4.50;;
72194;SDS011;60095;50.180;9.032;2023-02-04T09:14:37;9.93;;;4.07;;
72194;SDS011;60095;50.180;9.032;2023-02-04T09:17:03;14.07;;;3.45;;
72194;SDS011;60095;50.180;9.032;2023-02-04T09:19:29;9.68;;;3.35;;
72194;SDS011;60095;50.180;9.032;2023-02-04T09:21:56;12.77;;;4.10;;
72194;SDS011;60095;50.180;9.032;2023-02-04T09:24:22;19.70;;;6.30;;
72194;SDS011;60095;50.180;9.032;2023-02-04T09:26:48;19.30;;;6.85;;
72194;SDS011;60095;50.180;9.032;2023-02-04T09:29:15;15.20;;;4.65;;
72194;SDS011;60095;50.180;9.032;2023-02-04T09:31:42;17.88;;;1.85;;
72194;SDS011;60095;50.180;9.032;2023-02-04T09:34:08;9.55;;;4.15;;
72194;SDS011;60095;50.180;9.032;2023-02-04T09:36:35;4.63;;;2.88;;
72194;SDS011;60095;50.180;9.032;2023-02-04T09:39:02;4.38;;;2.75;;
72194;SDS011;60095;50.180;9.032;2023-02-04T09:41:30;12.40;;;2.78;;
72194;SDS011;60095;50.180;9.032;2023-02-04T09:43:56;20.77;;;3.03;;
72194;SDS011;60095;50.180;9.032;2023-02-04T09:46:23;18.77;;;5.22;;
72194;SDS011;60095;50.180;9.032;2023-02-04T09:48:53;16.80;;;3.60;;
72194;SDS011;60095;50.180;9.032;2023-02-04T09:51:21;3.83;;;2.28;;
72194;SDS011;60095;50.180;9.032;2023-02-04T09:53:48;9.23;;;2.70;;
72194;SDS011;60095;50.180;9.032;2023-02-04T09:56:15;10.30;;;2.78;;
72194;SDS011;60095;50.180;9.032;2023-02-04T09:58:43;7.05;;;1.65;;
72194;SDS011;60095;50.180;9.032;2023-02-04T10:01:11;7.88;;;2.03;;
72194;SDS011;60095;50.180;9.032;2023-02-04T10:03:38;10.80;;;2.65;;
72194;SDS011;60095;50.180;9.032;2023-02-04T10:06:11;8.55;;;2.28;;
72194;SDS011;60095;50.180;9.032;2023-02-04T10:08:38;6.50;;;2.17;;
72194;SDS011;60095;50.180;9.032;2023-02-04T10:11:05;7.13;;;1.65;;
72194;SDS011;60095;50.180;9.032;2023-02-04T10:13:35;2.00;;;1.08;;
72194;SDS011;60095;50.180;9.032;2023-02-04T10:16:02;1.67;;;0.95;;
72194;SDS011;60095;50.180;9.032;2023-02-04T10:18:30;4.32;;;2.50;;
72194;SDS011;60095;50.180;9.032;2023-02-04T10:20:59;5.68;;;1.48;;
72194;SDS011;60095;50.180;9.032;2023-02-04T10:23:30;9.93;;;2.95;;
72194;SDS011;60095;50.180;9.032;2023-02-04T10:25:57;6.68;;;2.38;;
72194;SDS011;60095;50.180;9.032;2023-02-04T10:28:31;9.32;;;2.08;;
72194;SDS011;60095;50.180;9.032;2023-02-04T10:33:24;4.07;;;1.92;;
72194;SDS011;60095;50.180;9.032;2023-02-04T10:35:51;5.90;;;1.08;;
72194;SDS011;60095;50.180;9.032;2023-02-04T10:38:17;5.78;;;2.38;;
72194;SDS011;60095;50.180;9.032;2023-02-04T10:40:45;12.25;;;3.08;;
72194;SDS011;60095;50.180;9.032;2023-02-04T10:43:13;10.52;;;2.83;;
72194;SDS011;60095;50.180;9.032;2023-02-04T10:45:43;4.00;;;1.83;;
72194;SDS011;60095;50.180;9.032;2023-02-04T10:48:13;1.35;;;1.08;;
72194;SDS011;60095;50.180;9.032;2023-02-04T10:50:40;2.92;;;1.63;;
72194;SDS011;60095;50.180;9.032;2023-02-04T10:53:07;3.17;;;1.23;;
72194;SDS011;60095;50.180;9.032;2023-02-04T10:55:54;6.70;;;2.50;;
72194;SDS011;60095;50.180;9.032;2023-02-04T10:58:22;0.55;;;0.55;;
72194;SDS011;60095;50.180;9.032;2023-02-04T11:00:49;4.78;;;1.35;;
72194;SDS011;60095;50.180;9.032;2023-02-04T11:03:17;8.20;;;2.65;;
72194;SDS011;60095;50.180;9.032;2023-02-04T11:05:44;14.70;;;2.65;;
72194;SDS011;60095;50.180;9.032;2023-02-04T11:08:18;7.32;;;1.98;;
72194;SDS011;60095;50.180;9.032;2023-02-04T11:10:45;6.10;;;1.95;;
72194;SDS011;60095;50.180;9.032;2023-02-04T11:13:20;8.43;;;1.98;;
72194;SDS011;60095;50.180;9.032;2023-02-04T11:15:47;5.00;;;1.77;;
72194;SDS011;60095;50.180;9.032;2023-02-04T11:18:24;14.75;;;2.47;;
72194;SDS011;60095;50.180;9.032;2023-02-04T11:20:52;6.20;;;2.80;;
72194;SDS011;60095;50.180;9.032;2023-02-04T11:23:30;2.42;;;1.25;;
72194;SDS011;60095;50.180;9.032;2023-02-04T11:26:01;7.10;;;4.13;;
72194;SDS011;60095;50.180;9.032;2023-02-04T11:28:37;7.13;;;3.13;;
72194;SDS011;60095;50.180;9.032;2023-02-04T11:31:11;5.75;;;4.07;;
72194;SDS011;60095;50.180;9.032;2023-02-04T11:33:38;6.43;;;2.15;;
72194;SDS011;60095;50.180;9.032;2023-02-04T11:36:06;11.07;;;2.92;;
72194;SDS011;60095;50.180;9.032;2023-02-04T11:38:33;11.38;;;2.65;;
72194;SDS011;60095;50.180;9.032;2023-02-04T11:41:02;2.03;;;1.77;;
72194;SDS011;60095;50.180;9.032;2023-02-04T11:43:33;4.63;;;1.65;;
72194;SDS011;60095;50.180;9.032;2023-02-04T11:46:00;1.70;;;0.98;;
72194;SDS011;60095;50.180;9.032;2023-02-04T11:48:27;8.70;;;2.08;;
72194;SDS011;60095;50.180;9.032;2023-02-04T11:50:54;2.40;;;1.15;;
72194;SDS011;60095;50.180;9.032;2023-02-04T11:53:20;3.05;;;1.30;;
72194;SDS011;60095;50.180;9.032;2023-02-04T11:55:49;7.60;;;2.85;;
72194;SDS011;60095;50.180;9.032;2023-02-04T11:58:17;3.95;;;1.45;;
72194;SDS011;60095;50.180;9.032;2023-02-04T12:00:45;5.65;;;1.95;;
72194;SDS011;60095;50.180;9.032;2023-02-04T12:03:23;8.60;;;2.80;;
72194;SDS011;60095;50.180;9.032;2023-02-04T12:05:49;4.55;;;1.65;;
72194;SDS011;60095;50.180;9.032;2023-02-04T12:08:28;8.30;;;2.13;;
72194;SDS011;60095;50.180;9.032;2023-02-04T12:10:59;4.72;;;1.77;;
72194;SDS011;60095;50.180;9.032;2023-02-04T12:13:27;5.28;;;2.40;;
72194;SDS011;60095;50.180;9.032;2023-02-04T12:15:57;8.30;;;0.98;;
72194;SDS011;60095;50.180;9.032;2023-02-04T12:18:23;7.13;;;1.80;;
72194;SDS011;60095;50.180;9.032;2023-02-04T12:20:51;7.00;;;2.38;;
72194;SDS011;60095;50.180;9.032;2023-02-04T12:23:18;3.42;;;1.45;;
72194;SDS011;60095;50.180;9.032;2023-02-04T12:25:44;1.08;;;0.68;;
72194;SDS011;60095;50.180;9.032;2023-02-04T12:28:10;9.70;;;3.03;;
72194;SDS011;60095;50.180;9.032;2023-02-04T12:30:37;6.00;;;1.95;;
72194;SDS011;60095;50.180;9.032;2023-02-04T12:33:04;7.07;;;2.17;;
72194;SDS011;60095;50.180;9.032;2023-02-04T12:35:31;1.83;;;1.50;;
72194;SDS011;60095;50.180;9.032;2023-02-04T12:37:57;4.30;;;1.80;;
72194;SDS011;60095;50.180;9.032;2023-02-04T12:40:24;4.78;;;2.10;;
72194;SDS011;60095;50.180;9.032;2023-02-04T12:42:50;7.13;;;1.85;;
72194;SDS011;60095;50.180;9.032;2023-02-04T12:45:16;1.27;;;1.10;;
72194;SDS011;60095;50.180;9.032;2023-02-04T12:47:43;3.08;;;1.63;;
72194;SDS011;60095;50.180;9.032;2023-02-04T12:50:11;2.60;;;1.40;;
72194;SDS011;60095;50.180;9.032;2023-02-04T12:52:38;14.05;;;2.33;;
72194;SDS011;60095;50.180;9.032;2023-02-04T12:55:05;2.72;;;1.40;;
72194;SDS011;60095;50.180;9.032;2023-02-04T12:57:32;1.42;;;0.65;;
72194;SDS011;60095;50.180;9.032;2023-02-04T12:59:59;10.70;;;1.30;;
72194;SDS011;60095;50.180;9.032;2023-02-04T13:02:25;10.35;;;1.40;;
72194;SDS011;60095;50.180;9.032;2023-02-04T13:04:52;3.75;;;0.95;;
72194;SDS011;60095;50.180;9.032;2023-02-04T13:07:19;7.85;;;1.63;;
72194;SDS011;60095;50.180;9.032;2023-02-04T13:09:46;2.13;;;1.48;;
72194;SDS011;60095;50.180;9.032;2023-02-04T13:12:12;2.83;;;1.40;;
72194;SDS011;60095;50.180;9.032;2023-02-04T13:14:38;5.50;;;0.77;;
72194;SDS011;60095;50.180;9.032;2023-02-04T13:17:05;2.17;;;1.15;;
72194;SDS011;60095;50.180;9.032;2023-02-04T13:19:31;2.70;;;1.65;;
72194;SDS011;60095;50.180;9.032;2023-02-04T13:21:58;7.90;;;1.08;;
72194;SDS011;60095;50.180;9.032;2023-02-04T13:24:26;2.88;;;1.67;;
72194;SDS011;60095;50.180;9.032;2023-02-04T13:26:52;5.20;;;1.85;;
72194;SDS011;60095;50.180;9.032;2023-02-04T13:29:18;6.88;;;1.80;;
72194;SDS011;60095;50.180;9.032;2023-02-04T13:31:46;2.58;;;1.52;;
72194;SDS011;60095;50.180;9.032;2023-02-04T13:34:12;5.63;;;2.22;;
72194;SDS011;60095;50.180;9.032;2023-02-04T13:36:38;2.95;;;1.58;;
72194;SDS011;60095;50.180;9.032;2023-02-04T13:39:05;7.60;;;1.77;;
72194;SDS011;60095;50.180;9.032;2023-02-04T13:41:32;2.08;;;1.15;;
72194;SDS011;60095;50.180;9.032;2023-02-04T13:43:59;0.77;;;0.73;;
72194;SDS011;60095;50.180;9.032;2023-02-04T13:46:25;0.93;;;0.70;;
72194;SDS011;60095;50.180;9.032;2023-02-04T13:48:51;12.02;;;2.88;;
72194;SDS011;60095;50.180;9.032;2023-02-04T13:51:18;1.98;;;1.17;;
72194;SDS011;60095;50.180;9.032;2023-02-04T13:53:44;4.93;;;1.85;;
72194;SDS011;60095;50.180;9.032;2023-02-04T13:56:10;5.25;;;0.95;;
72194;SDS011;60095;50.180;9.032;2023-02-04T13:58:38;5.28;;;0.75;;
72194;SDS011;60095;50.180;9.032;2023-02-04T14:01:07;6.22;;;1.27;;
72194;SDS011;60095;50.180;9.032;2023-02-04T14:03:34;4.38;;;1.50;;
72194;SDS011;60095;50.180;9.032;2023-02-04T14:06:00;5.95;;;1.25;;
72194;SDS011;60095;50.180;9.032;2023-02-04T14:08:26;0.95;;;0.52;;
72194;SDS011;60095;50.180;9.032;2023-02-04T14:10:53;3.03;;;1.05;;
72194;SDS011;60095;50.180;9.032;2023-02-04T14:13:19;1.55;;;1.10;;
72194;SDS011;60095;50.180;9.032;2023-02-04T14:15:47;2.17;;;1.55;;
72194;SDS011;60095;50.180;9.032;2023-02-04T14:18:13;9.02;;;1.15;;
72194;SDS011;60095;50.180;9.032;2023-02-04T14:20:40;4.18;;;1.25;;
72194;SDS011;60095;50.180;9.032;2023-02-04T14:23:06;1.77;;;0.52;;
72194;SDS011;60095;50.180;9.032;2023-02-04T14:25:33;4.70;;;1.38;;
72194;SDS011;60095;50.180;9.032;2023-02-04T14:28:00;3.20;;;1.85;;
72194;SDS011;60095;50.180;9.032;2023-02-04T14:30:27;2.22;;;1.02;;
72194;SDS011;60095;50.180;9.032;2023-02-04T14:32:55;0.70;;;0.60;;
72194;SDS011;60095;50.180;9.032;2023-02-04T14:35:21;2.30;;;0.95;;
72194;SDS011;60095;50.180;9.032;2023-02-04T14:37:48;6.60;;;1.05;;
72194;SDS011;60095;50.180;9.032;2023-02-04T14:40:16;1.38;;;0.85;;
72194;SDS011;60095;50.180;9.032;2023-02-04T14:42:42;3.47;;;0.65;;
72194;SDS011;60095;50.180;9.032;2023-02-04T14:45:09;3.30;;;0.88;;